Time;durP1;ratioP1;P1;durP2;ratioP2;P2;SDS_P1;SDS_P2;PMS_P1;PMS_P2;Temp;Humidity;BMP_temperature;BMP_pressure;BME280_temperature;BME280_humidity;BME280_pressure;Samples;Min_cycle;Max_cycle;Signal;HPM_P1;HPM_P2
2022/04/30 00:02:13;;;;;;;5.37;5.37;;;;;;;8.25;80.87;102139.41;5114870;28;20202;-68
2022/04/30 00:04:45;;;;;;;6.07;5.87;;;;;;;8.27;80.65;102142.84;5116853;28;20220;-68
2022/04/30 00:07:16;;;;;;;5.63;5.53;;;;;;;8.17;80.78;102134.25;5114281;28;20213;-68
2022/04/30 00:09:43;;;;;;;6.50;6.27;;;;;;;8.14;81.16;102129.03;5116601;28;20170;-68
2022/04/30 00:12:10;;;;;;;5.63;5.50;;;;;;;8.15;81.07;102132.56;5114549;28;20209;-68
2022/04/30 00:14:38;;;;;;;5.60;5.50;;;;;;;8.16;81.39;102132.53;5107493;28;20216;-68
2022/04/30 00:17:05;;;;;;;5.87;5.57;;;;;;;8.14;81.70;102134.25;5115956;28;20209;-68
2022/04/30 00:19:32;;;;;;;6.23;6.03;;;;;;;8.20;81.51;102138.56;5115324;28;20228;-68
2022/04/30 00:21:59;;;;;;;5.47;5.37;;;;;;;8.17;81.55;102130.78;5115647;28;20228;-69
2022/04/30 00:24:27;;;;;;;5.97;5.70;;;;;;;8.14;81.63;102134.25;5114397;28;20204;-68
2022/04/30 00:26:55;;;;;;;6.37;6.17;;;;;;;8.17;81.88;102129.03;5108112;28;20311;-69
2022/04/30 00:29:23;;;;;;;5.73;5.63;;;;;;;8.09;82.25;102130.00;5112444;28;20181;-68
2022/04/30 00:31:50;;;;;;;5.60;5.40;;;;;;;8.05;82.20;102126.53;5114513;28;20246;-68
2022/04/30 00:34:17;;;;;;;8.43;5.97;;;;;;;8.02;82.15;102121.34;5113565;28;20765;-68
2022/04/30 00:36:43;;;;;;;5.67;5.47;;;;;;;7.94;82.17;102116.19;5112743;28;20299;-68
2022/04/30 00:39:09;;;;;;;6.77;6.20;;;;;;;7.93;82.37;102118.78;5116270;28;20227;-68
2022/04/30 00:41:44;;;;;;;5.80;5.47;;;;;;;7.89;82.56;102112.75;5115300;28;20220;-68
2022/04/30 00:44:15;;;;;;;5.30;5.20;;;;;;;7.88;82.71;102100.59;5115980;28;20580;-68
2022/04/30 00:46:43;;;;;;;5.60;5.43;;;;;;;7.89;82.67;102109.28;5112172;28;20243;-67
2022/04/30 00:49:09;;;;;;;5.53;5.40;;;;;;;7.82;83.16;102108.47;5115697;28;20216;-67
2022/04/30 00:51:38;;;;;;;6.63;6.13;;;;;;;7.71;83.15;102108.53;5115665;28;20597;-67
2022/04/30 00:54:05;;;;;;;5.60;5.50;;;;;;;7.72;82.97;102112.88;5115554;28;20217;-68
2022/04/30 00:56:34;;;;;;;5.43;5.00;;;;;;;7.69;83.38;102109.41;5111367;28;20185;-68
2022/04/30 00:59:03;;;;;;;5.80;5.53;;;;;;;7.71;83.41;102115.47;5114800;28;20191;-68
2022/04/30 01:01:35;;;;;;;5.57;5.47;;;;;;;7.77;83.22;102117.19;5112939;28;20227;-69
2022/04/30 01:04:22;;;;;;;8.53;5.80;;;;;;;7.67;83.47;102116.38;5096853;28;20250;-68
2022/04/30 01:07:02;;;;;;;5.67;5.40;;;;;;;7.66;83.59;102112.91;5113659;28;20299;-68
2022/04/30 01:09:31;;;;;;;4.77;4.63;;;;;;;7.67;83.68;102111.19;5115554;28;20201;-68
2022/04/30 01:12:06;;;;;;;5.60;5.40;;;;;;;7.70;83.76;102113.75;5114133;28;20221;-68
2022/04/30 01:14:34;;;;;;;5.40;5.30;;;;;;;7.67;83.75;102113.78;5113355;28;20222;-69
2022/04/30 01:17:04;;;;;;;5.07;4.97;;;;;;;7.69;83.64;102110.28;5115304;28;20687;-68
2022/04/30 01:19:33;;;;;;;5.40;5.30;;;;;;;7.64;83.90;102112.06;5115364;28;20177;-68
2022/04/30 01:22:01;;;;;;;5.63;5.43;;;;;;;7.71;83.52;102112.88;5114995;28;20220;-68
2022/04/30 01:24:29;;;;;;;5.27;5.17;;;;;;;7.66;84.02;102104.25;5114206;28;20221;-68
2022/04/30 01:26:57;;;;;;;5.00;4.70;;;;;;;7.59;84.42;102107.75;5114248;28;20248;-68
2022/04/30 01:29:24;;;;;;;5.83;5.57;;;;;;;7.60;84.50;102099.06;5115447;28;20604;-68
2022/04/30 01:37:23;;;;;;;5.13;4.93;;;;;;;7.53;84.79;102092.16;5114802;28;20200;-68
2022/04/30 01:40:01;;;;;;;5.10;4.90;;;;;;;7.52;84.80;102090.44;5114643;28;20223;-68
2022/04/30 01:42:31;;;;;;;6.00;5.73;;;;;;;7.51;85.08;102099.13;5114648;28;20225;-68
2022/04/30 01:44:58;;;;;;;6.37;5.97;;;;;;;7.53;85.08;102097.38;5113974;28;20605;-69
2022/04/30 01:47:26;;;;;;;7.50;5.20;;;;;;;7.49;85.28;102093.91;5113315;28;20237;-69
2022/04/30 01:49:52;;;;;;;5.43;5.33;;;;;;;7.48;85.33;102099.13;5114778;28;20535;-68
2022/04/30 01:52:19;;;;;;;5.83;5.53;;;;;;;7.36;85.88;102094.88;5114483;28;20711;-68
2022/04/30 01:54:45;;;;;;;5.93;5.73;;;;;;;7.40;85.75;102094.84;5113788;28;20186;-68
2022/04/30 01:57:15;;;;;;;5.80;5.50;;;;;;;7.37;86.13;102092.25;5113995;28;20628;-68
2022/04/30 01:59:42;;;;;;;6.03;5.73;;;;;;;7.36;86.15;102084.47;5114947;28;20209;-68
2022/04/30 02:02:09;;;;;;;4.97;4.87;;;;;;;7.26;86.30;102083.63;5096116;28;20189;-68
2022/04/30 02:04:36;;;;;;;6.40;6.00;;;;;;;7.30;86.11;102087.97;5113647;28;20169;-70
2022/04/30 02:07:03;;;;;;;5.90;5.80;;;;;;;7.26;86.47;102083.63;5112625;28;20216;-68
2022/04/30 02:09:31;;;;;;;6.00;5.80;;;;;;;7.21;86.76;102079.31;5114144;28;20189;-68
2022/04/30 02:11:59;;;;;;;5.63;5.33;;;;;;;7.17;87.02;102078.47;5114120;28;20235;-68
2022/04/30 02:14:30;;;;;;;5.80;5.50;;;;;;;7.18;87.13;102075.00;5113257;28;20185;-69
2022/04/30 02:17:01;;;;;;;6.03;5.93;;;;;;;7.16;87.42;102075.00;5093956;28;20612;-68
2022/04/30 02:19:29;;;;;;;5.10;5.00;;;;;;;7.05;87.85;102071.56;5093750;28;20192;-68
2022/04/30 02:21:58;;;;;;;5.70;5.40;;;;;;;6.99;88.16;102068.13;5112062;28;20543;-68
2022/04/30 02:24:27;;;;;;;6.30;5.90;;;;;;;7.02;88.21;102062.94;5113618;28;20528;-69
2022/04/30 02:26:54;;;;;;;6.90;6.50;;;;;;;6.92;88.51;102063.81;5093412;28;20263;-67
2022/04/30 02:29:20;;;;;;;6.90;6.50;;;;;;;6.88;88.78;102061.25;5093831;28;20235;-67
2022/04/30 02:31:47;;;;;;;6.60;6.20;;;;;;;6.83;89.02;102057.78;5093690;28;20190;-68
2022/04/30 02:34:15;;;;;;;5.90;5.70;;;;;;;6.78;89.16;102058.69;5093704;28;20199;-67
2022/04/30 02:36:41;;;;;;;6.03;5.83;;;;;;;6.76;89.36;102052.63;5110960;28;20193;-67
2022/04/30 02:39:08;;;;;;;5.67;5.40;;;;;;;6.68;89.38;102055.25;5113773;28;20185;-67
2022/04/30 02:41:35;;;;;;;5.93;5.73;;;;;;;6.70;89.42;102052.63;5113758;28;20223;-67
2022/04/30 02:44:04;;;;;;;6.60;6.20;;;;;;;6.56;89.95;102050.94;5111481;28;20250;-68
2022/04/30 02:46:30;;;;;;;6.23;5.77;;;;;;;6.63;89.87;102047.44;5113559;28;20240;-67
2022/04/30 02:48:57;;;;;;;6.87;6.40;;;;;;;6.54;90.03;102051.84;5114237;28;20189;-67
2022/04/30 02:51:24;;;;;;;5.97;5.67;;;;;;;6.50;90.33;102044.91;5114046;28;20245;-67
2022/04/30 02:53:53;;;;;;;6.77;6.33;;;;;;;6.50;90.49;102040.59;5113912;28;20185;-68
2022/04/30 02:56:20;;;;;;;6.60;6.37;;;;;;;6.48;90.96;102037.09;5112694;28;20243;-67
2022/04/30 03:01:33;;;;;;;6.47;6.20;;;;;;;6.44;91.37;102026.72;5114127;28;20188;-67
2022/04/30 03:04:08;;;;;;;7.00;6.30;;;;;;;6.43;91.27;102024.97;5096273;28;20535;-68
2022/04/30 03:06:35;;;;;;;6.77;6.27;;;;;;;6.39;91.55;102026.72;5112869;28;20208;-68
2022/04/30 03:09:03;;;;;;;5.87;5.60;;;;;;;6.28;92.09;102036.28;5114076;28;20741;-67
2022/04/30 03:11:31;;;;;;;6.70;6.40;;;;;;;6.29;92.10;102030.25;5112830;28;20588;-67
2022/04/30 03:13:58;;;;;;;7.20;6.50;;;;;;;6.22;92.63;102036.31;5113688;28;20229;-67
2022/04/30 03:21:54;;;;;;;6.80;6.40;;;;;;;6.12;92.92;102032.84;5113680;28;20180;-68
2022/04/30 03:24:21;;;;;;;6.17;6.07;;;;;;;6.13;92.93;102036.31;5112601;28;20675;-69
2022/04/30 03:26:49;;;;;;;5.87;5.67;;;;;;;6.10;93.04;102032.00;5111746;28;20220;-68
2022/04/30 03:29:16;;;;;;;6.00;5.80;;;;;;;6.11;93.00;102028.53;5113547;28;20605;-68
2022/04/30 03:31:42;;;;;;;6.83;6.70;;;;;;;6.13;93.13;102031.13;5113773;28;20649;-67
2022/04/30 03:34:14;;;;;;;6.37;5.97;;;;;;;6.12;93.44;102027.66;5114783;28;20191;-67
2022/04/30 03:36:41;;;;;;;5.80;5.63;;;;;;;6.12;93.28;102024.19;5115778;28;20551;-67
2022/04/30 03:39:09;;;;;;;7.00;6.43;;;;;;;6.11;93.47;102028.53;5116989;28;20610;-67
2022/04/30 03:41:36;;;;;;;6.10;6.00;;;;;;;6.06;93.50;102025.94;5117891;28;20571;-67
2022/04/30 03:44:03;;;;;;;6.97;6.47;;;;;;;6.07;93.50;102027.69;5116658;28;20200;-67
2022/04/30 03:46:30;;;;;;;6.70;6.30;;;;;;;6.01;93.92;102027.69;5114896;28;20261;-68
2022/04/30 03:48:57;;;;;;;6.20;6.00;;;;;;;6.00;93.86;102027.66;5117199;28;20191;-67
2022/04/30 03:51:24;;;;;;;5.90;5.80;;;;;;;5.94;93.94;102023.38;5117127;28;20239;-67
2022/04/30 03:53:53;;;;;;;6.40;6.23;;;;;;;5.86;94.34;102031.97;5115844;28;20197;-67
2022/04/30 03:56:22;;;;;;;7.53;6.90;;;;;;;5.87;94.30;102028.53;5115291;28;20195;-67
2022/04/30 03:58:49;;;;;;;7.00;6.77;;;;;;;5.82;94.30;102025.94;5115959;28;20226;-67
2022/04/30 04:01:19;;;;;;;6.70;6.33;;;;;;;5.82;94.85;102031.13;5116688;28;20245;-67
2022/04/30 04:03:48;;;;;;;6.80;6.17;;;;;;;5.76;95.04;102025.94;5116920;28;20617;-68
2022/04/30 04:06:15;;;;;;;7.20;6.73;;;;;;;5.75;94.89;102025.06;5114051;28;20553;-68
2022/04/30 04:08:42;;;;;;;6.97;6.67;;;;;;;5.75;94.90;102032.00;5117036;28;20272;-68
2022/04/30 04:11:13;;;;;;;7.20;6.83;;;;;;;5.72;95.21;102022.47;5117009;28;20183;-68
2022/04/30 04:19:09;;;;;;;7.27;6.57;;;;;;;5.59;95.47;102038.94;5116566;28;20177;-68
2022/04/30 04:21:36;;;;;;;6.47;6.17;;;;;;;5.61;95.68;102037.19;5116213;28;20192;-68
2022/04/30 04:26:48;;;;;;;8.13;6.13;;;;;;;5.49;96.18;102040.63;5115077;28;20280;-68
2022/04/30 04:29:16;;;;;;;7.17;6.67;;;;;;;5.53;96.03;102038.94;5115686;28;20240;-68
2022/04/30 04:31:46;;;;;;;7.10;6.80;;;;;;;5.56;96.10;102043.25;5115201;28;20251;-68
2022/04/30 04:34:12;;;;;;;6.93;6.53;;;;;;;5.57;96.37;102037.19;5116639;28;20223;-68
2022/04/30 04:36:39;;;;;;;7.10;6.80;;;;;;;5.58;96.46;102038.94;5115047;28;20199;-68
2022/04/30 04:39:12;;;;;;;7.10;6.90;;;;;;;5.60;96.50;102038.06;5116024;28;20193;-68
2022/04/30 04:41:39;;;;;;;6.50;6.30;;;;;;;5.56;96.68;102041.50;5116463;28;20247;-68
2022/04/30 04:44:06;;;;;;;7.00;6.63;;;;;;;5.54;96.55;102040.66;5115254;28;20243;-68
2022/04/30 04:46:33;;;;;;;7.30;6.83;;;;;;;5.52;96.82;102037.19;5114360;28;20204;-68
2022/04/30 04:49:00;;;;;;;7.30;6.70;;;;;;;5.56;97.02;102041.50;5114778;28;20653;-68
2022/04/30 04:51:27;;;;;;;6.57;6.30;;;;;;;5.52;97.20;102045.84;5115948;28;20181;-68
2022/04/30 04:53:55;;;;;;;7.03;6.83;;;;;;;5.57;97.22;102047.56;5115868;28;20256;-68
2022/04/30 04:56:22;;;;;;;9.60;7.57;;;;;;;5.58;97.31;102046.72;5113484;28;20200;-68
2022/04/30 04:58:49;;;;;;;7.20;6.80;;;;;;;5.57;97.72;102042.38;5115380;28;20199;-68
2022/04/30 05:01:15;;;;;;;7.67;7.27;;;;;;;5.63;97.55;102052.78;5115747;28;20194;-68
2022/04/30 05:03:42;;;;;;;7.57;7.03;;;;;;;5.68;97.61;102051.91;5115622;28;20195;-68
2022/04/30 05:06:09;;;;;;;7.30;7.00;;;;;;;5.71;97.59;102051.91;5113952;28;20195;-68
2022/04/30 05:08:35;;;;;;;7.20;6.77;;;;;;;5.75;97.54;102053.66;5115272;28;20210;-68
2022/04/30 05:11:02;;;;;;;8.17;7.87;;;;;;;5.76;97.72;102052.78;5115579;28;20220;-68
2022/04/30 05:13:28;;;;;;;7.20;7.00;;;;;;;5.79;97.74;102057.13;5115544;28;20186;-68
2022/04/30 05:15:55;;;;;;;6.97;6.77;;;;;;;5.82;97.96;102056.25;5113408;28;20190;-68
2022/04/30 05:18:21;;;;;;;6.57;6.47;;;;;;;5.81;98.29;102055.41;5115099;28;20203;-68
2022/04/30 05:20:48;;;;;;;8.23;7.40;;;;;;;5.90;98.08;102057.13;5115064;28;20241;-68
2022/04/30 05:23:14;;;;;;;7.17;6.87;;;;;;;5.93;98.15;102063.22;5115070;28;20188;-67
2022/04/30 05:25:41;;;;;;;7.93;7.50;;;;;;;6.00;98.02;102066.66;5114508;28;20194;-68
2022/04/30 05:28:08;;;;;;;9.50;8.67;;;;;;;6.05;97.79;102065.78;5115020;28;20211;-68
2022/04/30 05:30:35;;;;;;;7.87;7.50;;;;;;;6.10;97.77;102067.53;5114878;28;20187;-68
2022/04/30 05:33:01;;;;;;;7.70;7.60;;;;;;;6.18;97.31;102061.47;5114443;28;20187;-68
2022/04/30 05:35:28;;;;;;;8.20;7.90;;;;;;;6.24;96.98;102064.06;5113866;28;20320;-68
2022/04/30 05:37:54;;;;;;;7.17;6.83;;;;;;;6.28;97.22;102073.56;5113949;28;20223;-68
2022/04/30 05:40:21;;;;;;;8.93;8.27;;;;;;;6.30;97.58;102065.78;5114734;28;20248;-68
2022/04/30 05:42:47;;;;;;;8.10;7.60;;;;;;;6.35;97.40;102069.22;5114972;28;20372;-68
2022/04/30 05:45:14;;;;;;;7.93;7.73;;;;;;;6.35;97.07;102070.09;5114141;28;20184;-69
2022/04/30 05:47:40;;;;;;;8.93;8.03;;;;;;;6.43;97.31;102074.41;5114835;28;20269;-68
2022/04/30 05:50:09;;;;;;;7.83;7.53;;;;;;;6.41;97.16;102081.34;5114070;28;20257;-69
2022/04/30 05:52:36;;;;;;;7.63;7.33;;;;;;;6.51;97.44;102081.34;5114727;28;20283;-69
2022/04/30 05:55:05;;;;;;;7.10;6.93;;;;;;;6.60;97.84;102076.09;5112959;28;20191;-69
2022/04/30 05:57:31;;;;;;;9.27;8.20;;;;;;;6.73;97.36;102073.47;5113653;28;20207;-68
2022/04/30 05:59:58;;;;;;;8.77;8.40;;;;;;;6.82;97.35;102081.22;5114361;28;20192;-68
2022/04/30 06:02:28;;;;;;;9.73;8.20;;;;;;;6.87;96.80;102080.34;5115154;28;20201;-68
2022/04/30 06:04:55;;;;;;;8.90;8.17;;;;;;;7.00;96.62;102080.28;5114904;28;20225;-68
2022/04/30 06:07:21;;;;;;;8.73;8.20;;;;;;;7.08;96.29;102078.53;5113247;28;20265;-68
2022/04/30 06:09:48;;;;;;;7.20;6.90;;;;;;;7.13;96.22;102071.53;5114478;28;20176;-68
2022/04/30 06:12:14;;;;;;;7.90;7.17;;;;;;;7.25;95.60;102081.91;5114405;28;20184;-68
2022/04/30 06:14:40;;;;;;;7.80;7.27;;;;;;;7.24;95.62;102087.13;5114132;28;20184;-68
2022/04/30 06:17:08;;;;;;;8.37;7.67;;;;;;;7.27;95.77;102085.34;5112853;28;20205;-68
2022/04/30 06:19:35;;;;;;;8.80;7.97;;;;;;;7.37;95.00;102089.66;5114277;28;20193;-68
2022/04/30 06:22:01;;;;;;;9.40;8.80;;;;;;;7.42;94.75;102085.25;5113953;28;20189;-68
2022/04/30 06:24:28;;;;;;;8.77;7.87;;;;;;;7.48;94.50;102084.34;5113534;28;20204;-68
2022/04/30 06:26:55;;;;;;;9.63;7.67;;;;;;;7.57;94.19;102086.03;5112735;28;20216;-68
2022/04/30 06:29:22;;;;;;;8.57;7.73;;;;;;;7.55;94.03;102093.00;5112728;28;20193;-68
2022/04/30 06:31:51;;;;;;;7.80;7.40;;;;;;;7.64;94.08;102088.63;5113810;28;20220;-68
2022/04/30 06:34:18;;;;;;;10.20;7.60;;;;;;;7.78;94.36;102087.63;5114352;28;20202;-68
2022/04/30 06:36:45;;;;;;;8.37;7.80;;;;;;;7.92;94.67;102088.38;5112143;28;20221;-69
2022/04/30 06:39:12;;;;;;;9.57;8.10;;;;;;;7.95;93.13;102091.84;5113886;28;20189;-68
2022/04/30 06:41:38;;;;;;;7.83;7.40;;;;;;;8.03;93.04;102090.91;5113710;28;20230;-68
2022/04/30 06:44:04;;;;;;;8.20;7.70;;;;;;;8.17;92.78;102094.25;5112924;28;20201;-68
2022/04/30 06:46:31;;;;;;;8.97;8.30;;;;;;;8.38;91.84;102091.47;5113113;28;20226;-68
2022/04/30 06:48:58;;;;;;;7.40;7.20;;;;;;;8.55;90.55;102093.91;5113902;28;20204;-68
2022/04/30 06:51:25;;;;;;;8.33;7.50;;;;;;;8.52;90.36;102093.94;5113635;28;20185;-69
2022/04/30 06:59:22;;;;;;;7.13;6.80;;;;;;;8.54;90.10;102085.22;5114097;28;20171;-68
2022/04/30 07:04:17;;;;;;;7.67;7.27;;;;;;;8.50;89.56;102083.53;5113769;28;20648;-68
2022/04/30 07:06:46;;;;;;;7.60;7.23;;;;;;;8.62;88.45;102086.88;5111880;28;20192;-67
2022/04/30 07:09:13;;;;;;;7.30;7.10;;;;;;;8.76;88.17;102079.75;5116226;28;20254;-68
2022/04/30 07:11:39;;;;;;;7.47;6.83;;;;;;;8.86;87.83;102085.72;5117255;28;20246;-68
2022/04/30 07:14:06;;;;;;;6.77;6.67;;;;;;;8.92;87.59;102094.34;5117882;28;20195;-68
2022/04/30 07:16:32;;;;;;;7.87;7.27;;;;;;;9.00;87.48;102091.63;5115952;28;20655;-69
2022/04/30 07:19:00;;;;;;;8.03;7.50;;;;;;;9.03;88.09;102084.63;5117489;28;20183;-68
2022/04/30 07:21:28;;;;;;;7.73;7.23;;;;;;;9.12;88.26;102085.38;5117635;28;20254;-68
2022/04/30 07:23:54;;;;;;;8.43;7.17;;;;;;;9.24;86.33;102091.31;5117352;28;20190;-68
2022/04/30 07:26:21;;;;;;;7.03;6.63;;;;;;;9.15;85.99;102081.00;5115840;28;20260;-68
2022/04/30 07:28:47;;;;;;;7.13;6.90;;;;;;;9.03;85.74;102087.25;5117159;28;20266;-68
2022/04/30 07:31:14;;;;;;;7.43;7.03;;;;;;;8.94;85.71;102087.38;5117501;28;20656;-68
2022/04/30 07:33:41;;;;;;;6.77;6.57;;;;;;;9.03;85.48;102087.25;5117167;28;20205;-68
2022/04/30 07:36:07;;;;;;;6.63;6.43;;;;;;;9.06;84.26;102081.97;5115336;28;20312;-69
2022/04/30 07:38:34;;;;;;;6.90;6.50;;;;;;;9.01;83.90;102082.94;5116882;28;20241;-68
2022/04/30 07:41:01;;;;;;;6.03;5.73;;;;;;;8.88;83.11;102092.66;5115106;28;20653;-69
2022/04/30 07:43:27;;;;;;;6.43;6.33;;;;;;;8.91;82.50;102086.53;5117292;28;20251;-68
2022/04/30 07:45:54;;;;;;;5.70;5.70;;;;;;;8.91;83.01;102083.91;5116184;28;20202;-69
2022/04/30 07:48:20;;;;;;;6.60;6.30;;;;;;;9.03;82.94;102087.25;5116766;28;20667;-68
2022/04/30 07:50:47;;;;;;;5.37;5.17;;;;;;;8.98;82.59;102089.03;5116976;28;20194;-68
2022/04/30 07:53:15;;;;;;;5.30;5.20;;;;;;;9.01;82.64;102086.41;5116760;28;20655;-68
2022/04/30 07:55:42;;;;;;;6.80;6.70;;;;;;;8.97;80.73;102081.22;5114296;28;20655;-68
2022/04/30 07:58:10;;;;;;;6.20;5.70;;;;;;;9.02;80.49;102082.91;5116810;28;20244;-69
2022/04/30 08:00:36;;;;;;;6.60;6.30;;;;;;;9.06;81.24;102075.88;5115649;28;20231;-69
2022/04/30 08:03:03;;;;;;;6.33;6.17;;;;;;;9.16;81.21;102076.63;5115316;28;20192;-69
2022/04/30 08:05:31;;;;;;;5.87;5.67;;;;;;;9.10;79.16;102078.44;5115863;28;20191;-69
2022/04/30 08:07:57;;;;;;;5.67;5.47;;;;;;;9.22;78.06;102076.56;5115308;28;20214;-68
2022/04/30 08:10:24;;;;;;;6.03;5.57;;;;;;;9.23;76.81;102073.06;5116975;28;20237;-68
2022/04/30 08:12:53;;;;;;;5.67;5.27;;;;;;;9.29;76.94;102073.84;5115488;28;20243;-68
2022/04/30 08:15:22;;;;;;;5.70;5.53;;;;;;;9.34;75.05;102078.97;5116741;28;20201;-68
2022/04/30 08:17:48;;;;;;;5.90;5.70;;;;;;;9.26;74.41;102076.47;5116512;28;20209;-68
2022/04/30 08:20:15;;;;;;;5.63;5.43;;;;;;;9.28;73.75;102081.69;5113278;28;20236;-69
2022/04/30 08:22:41;;;;;;;5.97;5.87;;;;;;;9.29;74.43;102072.97;5115223;28;20200;-68
2022/04/30 08:25:09;;;;;;;6.60;6.23;;;;;;;9.36;74.98;102080.72;5116187;28;20594;-69
2022/04/30 08:27:35;;;;;;;6.40;6.27;;;;;;;9.57;74.88;102083.88;5116641;28;20728;-69
2022/04/30 08:30:03;;;;;;;9.07;6.97;;;;;;;9.78;75.80;102074.81;5114545;28;20206;-68
2022/04/30 08:32:29;;;;;;;5.53;5.37;;;;;;;10.08;73.73;102070.84;5115138;28;20710;-68
2022/04/30 08:34:55;;;;;;;4.63;4.63;;;;;;;10.30;71.40;102074.84;5116315;28;20177;-68
2022/04/30 08:37:22;;;;;;;5.67;5.57;;;;;;;10.40;72.57;102073.78;5116163;28;20266;-68
2022/04/30 08:39:48;;;;;;;5.23;5.13;;;;;;;10.50;70.18;102068.34;5115468;28;20197;-69
2022/04/30 08:42:16;;;;;;;5.53;5.33;;;;;;;10.54;68.89;102068.28;5115838;28;20188;-69
2022/04/30 08:44:42;;;;;;;6.50;6.37;;;;;;;10.63;69.80;102073.31;5115761;28;20222;-68
2022/04/30 08:47:11;;;;;;;5.77;5.30;;;;;;;10.67;70.71;102072.38;5115095;28;20205;-68
2022/04/30 08:49:43;;;;;;;6.43;5.90;;;;;;;10.75;70.24;102065.22;5115810;28;20314;-68
2022/04/30 08:52:11;;;;;;;5.33;5.23;;;;;;;10.71;68.68;102063.56;5114976;28;20200;-68
2022/04/30 08:54:38;;;;;;;6.23;6.03;;;;;;;10.69;68.14;102065.34;5114633;28;20221;-68
2022/04/30 08:57:05;;;;;;;7.50;6.07;;;;;;;10.73;69.65;102061.78;5115089;28;20220;-70
2022/04/30 08:59:31;;;;;;;7.47;7.17;;;;;;;10.85;71.13;102059.78;5115500;28;20185;-68
2022/04/30 09:01:58;;;;;;;6.73;6.50;;;;;;;11.02;72.15;102062.94;5115732;28;20638;-68
2022/04/30 09:04:26;;;;;;;7.33;6.90;;;;;;;11.06;71.80;102063.72;5114373;28;20197;-68
2022/04/30 09:06:55;;;;;;;7.57;6.83;;;;;;;11.07;70.82;102061.06;5113688;28;20209;-69
2022/04/30 09:09:28;;;;;;;6.47;6.37;;;;;;;11.05;69.46;102062.84;5113410;28;20238;-69
2022/04/30 09:12:05;;;;;;;6.50;6.40;;;;;;;10.98;71.36;102056.88;5115135;28;20203;-68
2022/04/30 09:14:31;;;;;;;6.80;6.33;;;;;;;11.10;69.54;102049.66;5115117;28;20687;-68
2022/04/30 09:17:12;;;;;;;6.47;5.97;;;;;;;11.18;69.23;102055.59;5094780;28;20205;-68
2022/04/30 09:19:56;;;;;;;5.97;5.87;;;;;;;11.20;68.28;102046.78;5099860;28;20189;-68
2022/04/30 09:22:33;;;;;;;7.73;7.40;;;;;;;11.25;68.98;102044.06;5111783;28;20185;-69
2022/04/30 09:25:02;;;;;;;7.43;6.93;;;;;;;11.22;68.26;102039.78;5114964;28;20726;-69
2022/04/30 09:27:51;;;;;;;6.47;6.27;;;;;;;11.30;68.30;102042.22;5114669;28;20245;-70
2022/04/30 09:30:29;;;;;;;7.43;6.90;;;;;;;11.15;66.73;102043.44;5114038;28;20185;-68
2022/04/30 09:33:03;;;;;;;6.23;6.13;;;;;;;11.30;64.94;102040.44;5114183;28;20170;-69
2022/04/30 09:38:16;;;;;;;4.97;4.87;;;;;;;11.36;65.01;102038.56;5107624;28;20270;-70
2022/04/30 09:40:57;;;;;;;5.60;5.37;;;;;;;11.26;63.02;102040.53;5112493;28;20201;-68
2022/04/30 09:43:29;;;;;;;5.40;5.10;;;;;;;11.23;64.07;102045.88;5109770;28;20245;-69
2022/04/30 09:46:04;;;;;;;5.00;4.90;;;;;;;11.28;65.11;102033.50;5109756;28;20263;-70
2022/04/30 09:54:01;;;;;;;6.13;5.77;;;;;;;11.84;64.69;102031.31;5103572;28;20181;-69
2022/04/30 09:56:38;;;;;;;6.20;6.00;;;;;;;11.98;63.02;102025.69;5114543;28;20605;-69
2022/04/30 09:59:10;;;;;;;6.23;6.03;;;;;;;11.94;63.91;102022.31;5096583;28;20185;-69
2022/04/30 10:01:39;;;;;;;5.93;5.73;;;;;;;11.92;67.86;102017.97;5102698;28;20189;-69
2022/04/30 10:04:14;;;;;;;6.87;6.47;;;;;;;11.63;67.08;102014.31;5114237;28;20242;-69
2022/04/30 10:06:44;;;;;;;6.40;6.10;;;;;;;11.47;66.52;102020.81;5113449;28;20184;-68
2022/04/30 10:09:20;;;;;;;6.40;6.30;;;;;;;11.41;66.20;102024.44;5112826;28;20193;-68
2022/04/30 10:12:11;;;;;;;5.93;5.73;;;;;;;11.41;66.29;102029.69;5103522;28;20575;-69
2022/04/30 10:15:08;;;;;;;6.37;6.27;;;;;;;11.37;67.62;102017.56;5114566;28;20185;-68
2022/04/30 10:17:37;;;;;;;6.90;6.70;;;;;;;11.42;67.54;102012.19;5101272;28;20201;-69
2022/04/30 10:20:06;;;;;;;6.87;6.67;;;;;;;11.44;67.86;102007.81;5114222;28;20173;-69
2022/04/30 10:22:35;;;;;;;5.17;5.13;;;;;;;11.60;64.41;102014.38;5112141;28;20193;-69
2022/04/30 10:25:03;;;;;;;5.70;5.30;;;;;;;11.77;64.67;102008.72;5113310;28;20250;-69
2022/04/30 10:27:44;;;;;;;5.63;5.43;;;;;;;11.91;61.38;102006.63;5112247;28;20274;-69
2022/04/30 10:30:19;;;;;;;9.30;5.43;;;;;;;12.16;61.96;102004.22;5114355;28;20193;-69
2022/04/30 10:32:56;;;;;;;5.87;5.40;;;;;;;12.20;59.90;102008.47;5114332;28;20181;-69
2022/04/30 10:35:31;;;;;;;5.00;4.93;;;;;;;12.24;61.79;102006.63;5110133;28;20246;-69
2022/04/30 10:38:20;;;;;;;6.20;6.10;;;;;;;12.31;62.00;102001.16;5106723;28;20212;-69
2022/04/30 10:40:47;;;;;;;5.87;5.57;;;;;;;12.18;61.88;101999.78;5113673;28;20230;-68
2022/04/30 10:43:31;;;;;;;5.30;5.17;;;;;;;12.15;61.25;102009.53;5108868;28;20613;-70
2022/04/30 10:45:59;;;;;;;6.10;5.90;;;;;;;12.02;61.74;102009.84;5105061;28;20238;-70
2022/04/30 10:48:26;;;;;;;5.63;5.20;;;;;;;12.01;61.14;102002.88;5109308;28;20297;-69
2022/04/30 10:51:11;;;;;;;5.60;5.50;;;;;;;12.21;62.14;101997.06;5109232;28;20188;-69
2022/04/30 10:53:46;;;;;;;5.70;5.60;;;;;;;12.21;61.68;101989.19;5112683;28;20185;-69
2022/04/30 10:56:13;;;;;;;4.43;4.33;;;;;;;12.34;60.20;101981.81;5111217;28;20184;-69
2022/04/30 10:58:41;;;;;;;4.20;4.20;;;;;;;12.50;59.47;101977.00;5111909;28;20282;-69
2022/04/30 11:01:16;;;;;;;4.63;4.50;;;;;;;12.53;57.79;101984.78;5113789;28;20607;-69
2022/04/30 11:03:44;;;;;;;6.30;6.10;;;;;;;12.54;58.21;101974.25;5113465;28;20184;-69
2022/04/30 11:06:11;;;;;;;4.63;4.53;;;;;;;12.71;58.64;101970.25;5113411;28;20197;-69
2022/04/30 11:08:38;;;;;;;5.10;5.00;;;;;;;12.79;58.93;101968.28;5113655;28;20250;-69
2022/04/30 11:11:04;;;;;;;5.07;4.97;;;;;;;12.82;58.62;101965.53;5113494;28;20189;-69
2022/04/30 11:13:31;;;;;;;4.70;4.70;;;;;;;12.95;60.53;101964.25;5113569;28;20233;-69
2022/04/30 11:15:59;;;;;;;8.23;5.33;;;;;;;12.85;62.57;101960.16;5113751;28;20646;-70
2022/04/30 11:18:26;;;;;;;4.90;4.90;;;;;;;12.60;61.62;101958.31;5113609;28;20280;-70
2022/04/30 11:21:00;;;;;;;5.13;4.93;;;;;;;12.51;61.99;101955.94;5113696;28;20189;-69
2022/04/30 11:23:28;;;;;;;5.30;5.30;;;;;;;12.59;60.04;101953.94;5113608;28;20213;-69
2022/04/30 11:25:54;;;;;;;4.90;4.80;;;;;;;12.57;60.39;101945.25;5113605;28;20215;-69
2022/04/30 11:28:28;;;;;;;4.87;4.77;;;;;;;12.68;57.05;101953.66;5113253;28;20211;-69
2022/04/30 11:30:59;;;;;;;4.93;4.57;;;;;;;12.75;55.58;101949.09;5113635;28;20582;-69
2022/04/30 11:33:34;;;;;;;3.93;3.93;;;;;;;12.87;55.32;101943.47;5113665;28;20179;-69
2022/04/30 11:36:00;;;;;;;4.57;4.57;;;;;;;12.96;57.58;101950.19;5113499;28;20577;-69
2022/04/30 11:38:26;;;;;;;4.80;4.80;;;;;;;13.08;55.56;101935.81;5113315;28;20242;-69
2022/04/30 11:41:05;;;;;;;5.23;5.13;;;;;;;13.30;57.10;101936.88;5113756;28;20203;-69
2022/04/30 11:43:32;;;;;;;4.40;4.27;;;;;;;13.28;58.47;101929.91;5113745;28;20198;-69
2022/04/30 11:46:02;;;;;;;5.37;5.27;;;;;;;13.24;57.57;101923.91;5113142;28;20212;-70
2022/04/30 11:48:36;;;;;;;4.70;4.70;;;;;;;12.99;59.28;101910.66;5112999;28;20258;-69
2022/04/30 11:51:09;;;;;;;4.50;4.50;;;;;;;12.93;61.82;101911.72;5113837;28;20196;-69
2022/04/30 11:53:36;;;;;;;4.40;4.40;;;;;;;13.05;60.40;101917.50;5113086;28;20243;-68
2022/04/30 11:56:03;;;;;;;4.57;4.57;;;;;;;13.07;60.44;101913.03;5115422;28;20234;-69
2022/04/30 11:58:40;;;;;;;4.53;4.43;;;;;;;13.28;62.01;101915.00;5116594;28;20213;-69
2022/04/30 12:01:19;;;;;;;5.43;5.43;;;;;;;13.37;62.36;101911.22;5117283;28;20699;-70
2022/04/30 12:03:46;;;;;;;5.07;5.07;;;;;;;13.41;59.98;101905.78;5116936;28;20256;-69
2022/04/30 12:06:13;;;;;;;4.67;4.47;;;;;;;13.47;59.19;101908.19;5116682;28;20242;-69
2022/04/30 12:08:40;;;;;;;4.70;4.60;;;;;;;13.42;59.22;101907.50;5116687;28;20239;-70
2022/04/30 12:11:07;;;;;;;5.27;5.07;;;;;;;13.31;59.67;101904.38;5116885;28;20177;-69
2022/04/30 12:13:33;;;;;;;6.10;6.00;;;;;;;13.54;61.17;101900.09;5116697;28;20213;-70
2022/04/30 12:16:04;;;;;;;5.50;5.50;;;;;;;13.56;60.21;101900.91;5116418;28;20259;-69
2022/04/30 12:27:02;;;;;;;4.83;4.83;;;;;;;13.86;54.53;101902.47;5116211;28;20213;-69